Time;durP1;ratioP1;P1;durP2;ratioP2;P2;SDS_P1;SDS_P2;PMS_P1;PMS_P2;Temp;Humidity;BMP_temperature;BMP_pressure;BME280_temperature;BME280_humidity;BME280_pressure;Samples;Min_cycle;Max_cycle;Signal;HPM_P1;HPM_P2
2023/12/29 00:02:22;;;;;;;5.43;1.52;;;10.50;99.90;;;11.89;96.36;99929.22;5020200;28;20042;-78
2023/12/29 00:04:48;;;;;;;6.82;1.13;;;10.50;99.90;;;12.06;95.67;99909.34;5046690;28;20040;-76
2023/12/29 00:07:15;;;;;;;8.00;1.63;;;10.50;99.90;;;11.92;95.73;99904.13;5063063;28;20408;-77
2023/12/29 00:09:41;;;;;;;5.72;1.10;;;10.50;99.90;;;12.02;95.51;99902.72;5066400;28;20033;-77
2023/12/29 00:12:08;;;;;;;9.32;1.80;;;10.50;99.90;;;12.00;94.45;99908.38;5061395;28;20033;-77
2023/12/29 00:14:38;;;;;;;8.73;1.40;;;10.60;99.90;;;12.02;95.22;99930.88;5057839;28;20029;-77
2023/12/29 00:17:04;;;;;;;7.28;1.15;;;10.60;99.90;;;12.13;94.71;99912.75;5053952;28;20060;-77
2023/12/29 00:19:29;;;;;;;6.40;1.20;;;10.50;99.90;;;11.97;94.59;99895.22;5066692;28;20597;-76
2023/12/29 00:21:55;;;;;;;4.05;1.15;;;10.50;99.90;;;11.97;94.24;99913.53;5054523;28;20033;-77
2023/12/29 00:24:21;;;;;;;5.45;1.08;;;10.50;99.90;;;12.05;95.09;99897.56;5061923;28;20033;-77
2023/12/29 00:26:47;;;;;;;5.97;1.23;;;10.50;99.90;;;11.92;93.73;99882.25;5050144;28;20041;-78
2023/12/29 00:29:15;;;;;;;4.97;1.23;;;10.60;99.90;;;12.11;93.76;99917.63;5065062;28;20044;-78
2023/12/29 00:31:41;;;;;;;4.82;1.00;;;10.60;99.90;;;12.13;93.27;99893.63;5038591;28;20033;-76
2023/12/29 00:34:07;;;;;;;4.38;1.00;;;10.60;99.90;;;12.00;94.31;99886.50;5060151;28;20037;-76
2023/12/29 00:36:33;;;;;;;5.80;1.40;;;10.60;99.90;;;12.05;93.68;99897.56;5059991;28;20365;-76
2023/12/29 00:38:58;;;;;;;3.92;0.90;;;10.60;99.90;;;12.08;93.64;99908.03;5069914;28;20036;-76
2023/12/29 00:41:24;;;;;;;5.25;1.10;;;10.60;99.90;;;12.27;94.17;99896.06;5042985;28;20044;-76
2023/12/29 00:43:50;;;;;;;6.25;1.10;;;10.60;99.90;;;12.19;94.41;99900.81;5071509;28;20048;-77
2023/12/29 00:46:15;;;;;;;5.10;1.08;;;10.60;99.90;;;12.13;94.87;99896.34;5069994;28;20062;-76
2023/12/29 00:48:41;;;;;;;5.93;1.15;;;10.60;99.90;;;12.08;95.77;99899.84;5069861;28;20050;-76
2023/12/29 00:51:07;;;;;;;8.60;1.60;;;10.60;99.90;;;12.30;95.07;99874.50;5061641;28;20043;-76
2023/12/29 00:53:35;;;;;;;5.97;1.13;;;10.60;99.90;;;12.14;95.32;99884.34;5069190;28;20044;-77
2023/12/29 00:56:01;;;;;;;6.78;1.25;;;10.60;99.90;;;12.11;96.00;99882.09;5056494;28;20139;-76
2023/12/29 00:58:26;;;;;;;3.45;1.25;;;10.60;99.90;;;12.11;96.63;99876.63;5037686;28;20044;-76
2023/12/29 01:00:53;;;;;;;5.40;1.48;;;10.60;99.90;;;11.92;97.89;99854.94;5053171;28;20175;-77
2023/12/29 01:03:20;;;;;;;5.78;1.35;;;10.60;99.90;;;11.93;98.03;99861.25;5065344;28;20063;-76
2023/12/29 01:05:46;;;;;;;5.45;1.25;;;10.60;99.90;;;12.03;99.19;99852.44;5038235;28;20047;-77
2023/12/29 01:08:12;;;;;;;8.75;1.42;;;10.60;99.90;;;12.18;99.19;99863.63;5044190;28;20040;-77
2023/12/29 01:10:38;;;;;;;7.38;1.70;;;10.50;99.90;;;12.01;99.82;99879.19;5034667;28;20043;-77
2023/12/29 01:13:04;;;;;;;6.60;1.42;;;10.50;99.90;;;12.01;98.67;99854.59;5050491;28;20138;-77
2023/12/29 01:15:29;;;;;;;4.88;1.00;;;10.50;99.90;;;12.07;98.83;99879.03;5069262;28;20040;-77
2023/12/29 01:17:55;;;;;;;4.97;1.30;;;10.50;99.90;;;12.05;99.91;99850.28;5051659;28;20036;-77
2023/12/29 01:20:21;;;;;;;5.80;1.13;;;10.60;99.90;;;12.10;100.00;99855.84;5048882;28;20044;-76
2023/12/29 01:22:46;;;;;;;4.20;0.80;;;10.60;99.90;;;12.03;100.00;99849.69;5046827;28;20036;-77
2023/12/29 01:25:12;;;;;;;4.65;1.00;;;10.60;99.90;;;11.93;100.00;99875.75;5042706;28;20056;-77
2023/12/29 01:27:38;;;;;;;5.53;1.00;;;10.50;99.90;;;11.97;100.00;99878.81;5040990;28;20383;-77
2023/12/29 01:30:06;;;;;;;5.25;1.20;;;10.40;99.90;;;11.83;100.00;99853.69;5038503;28;20037;-78
2023/12/29 01:32:31;;;;;;;4.50;1.08;;;10.40;99.90;;;11.86;100.00;99857.84;5036037;28;20055;-77
2023/12/29 01:34:57;;;;;;;3.90;0.90;;;10.40;99.90;;;11.91;100.00;99868.84;5051979;28;20083;-76
2023/12/29 01:37:23;;;;;;;5.90;1.33;;;10.40;99.90;;;11.90;100.00;99865.28;5061297;28;20032;-77
2023/12/29 01:39:49;;;;;;;6.28;2.13;;;10.40;99.90;;;11.80;100.00;99863.22;5070136;28;20437;-76
2023/12/29 01:42:15;;;;;;;5.15;1.02;;;10.50;99.90;;;11.91;100.00;99838.78;5042286;28;20075;-77
2023/12/29 01:44:40;;;;;;;4.25;1.27;;;10.50;99.90;;;11.88;100.00;99847.47;5056559;28;20033;-77
2023/12/29 01:47:16;;;;;;;5.20;1.10;;;10.50;99.90;;;12.03;100.00;99838.75;5039117;28;20041;-77
2023/12/29 01:49:46;;;;;;;7.70;1.38;;;10.50;99.90;;;11.90;100.00;99870.75;5064857;28;20079;-77
2023/12/29 01:52:16;;;;;;;4.47;1.30;;;10.50;99.90;;;12.03;100.00;99883.31;5055564;28;20488;-77
2023/12/29 01:54:45;;;;;;;5.70;1.00;;;10.50;99.90;;;11.97;100.00;99834.25;5058791;28;20036;-77
2023/12/29 01:57:11;;;;;;;5.03;1.00;;;10.50;99.90;;;12.12;100.00;99852.88;5059415;28;20507;-77
2023/12/29 01:59:40;;;;;;;8.13;1.40;;;10.50;99.90;;;11.76;100.00;99844.81;5060385;28;20036;-77
2023/12/29 02:02:06;;;;;;;6.60;1.08;;;10.40;99.90;;;11.65;100.00;99832.84;5065568;28;20123;-77
2023/12/29 02:04:33;;;;;;;9.43;1.38;;;10.30;99.90;;;11.89;100.00;99846.41;5042407;28;20112;-78
2023/12/29 02:06:58;;;;;;;8.63;1.25;;;10.30;99.90;;;11.81;100.00;99833.97;5064516;28;20106;-78
2023/12/29 02:09:25;;;;;;;4.85;1.00;;;10.30;99.90;;;11.82;100.00;99843.81;5055774;28;20668;-76
2023/12/29 02:11:50;;;;;;;4.75;1.27;;;10.20;99.90;;;11.61;100.00;99820.75;5065688;28;20036;-77
2023/12/29 02:14:19;;;;;;;6.28;1.30;;;10.20;99.90;;;11.70;100.00;99813.00;5065670;28;20047;-76
2023/12/29 02:17:15;;;;;;;2.72;0.90;;;10.20;99.90;;;11.89;100.00;99817.16;5057978;28;20032;-76
2023/12/29 02:19:48;;;;;;;5.10;0.98;;;10.20;99.90;;;11.51;100.00;99799.53;5063715;28;20036;-77
2023/12/29 02:22:15;;;;;;;4.47;1.00;;;10.20;99.90;;;11.62;100.00;99817.75;5059433;28;20029;-77
2023/12/29 02:24:46;;;;;;;7.15;1.40;;;10.30;99.90;;;11.61;100.00;99805.19;5039130;28;20082;-77
2023/12/29 02:27:37;;;;;;;6.43;1.55;;;10.30;99.90;;;11.92;100.00;99807.66;5069518;28;20124;-76
2023/12/29 02:30:22;;;;;;;7.13;1.33;;;10.30;99.90;;;11.75;100.00;99793.97;5041018;28;20508;-77
2023/12/29 02:32:53;;;;;;;7.05;0.95;;;10.30;99.90;;;11.78;100.00;99777.88;5034013;28;20040;-77
2023/12/29 02:35:26;;;;;;;5.97;1.13;;;10.30;99.90;;;11.81;100.00;99798.44;5060305;28;20060;-77
2023/12/29 02:37:55;;;;;;;5.10;1.15;;;10.30;99.90;;;11.82;100.00;99802.81;5045485;28;20434;-77
2023/12/29 02:40:21;;;;;;;3.92;1.23;;;10.40;99.90;;;11.79;100.00;99817.81;5057734;28;20029;-77
2023/12/29 02:42:49;;;;;;;4.35;0.90;;;10.40;99.90;;;11.75;100.00;99796.69;5048371;28;20074;-77
2023/12/29 02:45:16;;;;;;;5.93;1.02;;;10.40;99.90;;;11.70;100.00;99774.75;5068183;28;20577;-77
2023/12/29 02:47:42;;;;;;;3.75;1.05;;;10.40;99.90;;;11.90;100.00;99782.47;5038695;28;20103;-77
2023/12/29 02:50:09;;;;;;;5.78;1.02;;;10.40;99.90;;;11.95;100.00;99785.28;5060107;28;20033;-77
2023/12/29 02:52:35;;;;;;;5.63;1.20;;;10.40;99.90;;;11.86;100.00;99752.06;5062314;28;20591;-76
2023/12/29 02:55:00;;;;;;;8.15;1.25;;;10.40;99.90;;;11.98;100.00;99770.31;5056540;28;20040;-76
2023/12/29 02:57:26;;;;;;;6.18;1.23;;;10.40;99.90;;;11.87;100.00;99758.38;5035760;28;20473;-76
2023/12/29 02:59:52;;;;;;;4.75;1.00;;;10.40;99.90;;;11.97;100.00;99763.19;5068271;28;20033;-77
2023/12/29 03:02:18;;;;;;;4.45;1.00;;;10.40;99.90;;;11.93;100.00;99771.88;5064932;28;20446;-76
2023/12/29 03:04:44;;;;;;;6.57;1.23;;;10.40;99.90;;;11.88;100.00;99766.31;5052825;28;20463;-77
2023/12/29 03:07:10;;;;;;;7.35;1.30;;;10.50;99.90;;;11.85;100.00;99768.72;5050620;28;20040;-77
2023/12/29 03:09:35;;;;;;;4.78;0.90;;;10.50;99.90;;;11.97;100.00;99774.94;5063483;28;20043;-77
2023/12/29 03:12:01;;;;;;;4.35;1.33;;;10.50;99.90;;;11.76;100.00;99774.56;5037164;28;20344;-76
2023/12/29 03:14:27;;;;;;;5.55;1.00;;;10.60;99.90;;;11.97;100.00;99760.47;5068487;28;20036;-77
2023/12/29 03:16:52;;;;;;;5.53;0.93;;;10.60;99.90;;;11.98;100.00;99759.38;5062202;28;20446;-76
2023/12/29 03:19:18;;;;;;;6.82;1.27;;;10.60;99.90;;;11.90;100.00;99755.97;5045276;28;20399;-77
2023/12/29 03:21:44;;;;;;;4.85;0.90;;;10.60;99.90;;;11.96;100.00;99745.13;5055600;28;20058;-77
2023/12/29 03:24:10;;;;;;;4.88;1.30;;;10.60;99.90;;;12.05;100.00;99755.41;5039389;28;20033;-76
2023/12/29 03:26:35;;;;;;;9.63;1.48;;;10.60;99.90;;;12.04;100.00;99772.88;5064639;28;20037;-76
2023/12/29 03:29:01;;;;;;;4.13;0.80;;;10.60;99.90;;;11.96;100.00;99723.25;5038623;28;20562;-76
2023/12/29 03:31:27;;;;;;;4.35;0.95;;;10.50;99.90;;;12.00;100.00;99722.50;5048293;28;20025;-77
2023/12/29 03:33:53;;;;;;;5.00;1.00;;;10.60;99.90;;;11.91;100.00;99737.66;5045306;28;20443;-77
2023/12/29 03:36:18;;;;;;;6.38;1.10;;;10.50;99.90;;;12.02;100.00;99744.16;5020388;28;20029;-77
2023/12/29 03:38:44;;;;;;;3.78;0.80;;;10.60;99.90;;;12.03;100.00;99748.56;5041359;28;20452;-76
2023/12/29 03:41:10;;;;;;;3.13;1.02;;;10.60;99.90;;;12.12;100.00;99732.56;5045437;28;20370;-77
2023/12/29 03:43:35;;;;;;;4.05;0.90;;;10.60;99.90;;;12.05;100.00;99724.53;5041023;28;20033;-77
2023/12/29 03:46:01;;;;;;;3.45;1.00;;;10.60;99.90;;;12.15;100.00;99732.88;5041394;28;20071;-77
2023/12/29 03:48:27;;;;;;;5.15;0.80;;;10.60;99.90;;;12.08;100.00;99722.13;5062137;28;20028;-77
2023/12/29 03:50:52;;;;;;;5.80;0.90;;;10.50;99.90;;;12.07;100.00;99731.41;5037093;28;20047;-77
2023/12/29 03:53:19;;;;;;;2.55;0.60;;;10.70;99.90;;;12.00;100.00;99735.34;5065352;28;20041;-77
2023/12/29 03:55:44;;;;;;;2.35;0.57;;;10.70;99.90;;;12.10;100.00;99762.88;5051861;28;20448;-76
2023/12/29 03:58:10;;;;;;;2.47;0.70;;;10.70;99.90;;;12.13;100.00;99747.91;5041216;28;20091;-77
2023/12/29 04:00:36;;;;;;;2.35;0.60;;;10.80;99.90;;;12.13;100.00;99764.28;5060082;28;20375;-77
2023/12/29 04:03:02;;;;;;;2.35;0.50;;;10.80;99.90;;;12.02;100.00;99727.75;5062426;28;20539;-77
2023/12/29 04:05:28;;;;;;;3.00;0.68;;;10.70;99.90;;;11.94;100.00;99742.63;5066488;28;20036;-77
2023/12/29 04:07:54;;;;;;;2.88;0.60;;;10.60;99.90;;;11.70;100.00;99758.34;5040948;28;20136;-77
2023/12/29 04:10:19;;;;;;;2.17;0.52;;;10.40;99.90;;;11.51;100.00;99728.53;5038605;28;20039;-78
2023/12/29 04:12:45;;;;;;;3.72;0.50;;;10.20;99.90;;;11.42;100.00;99751.84;5072237;28;20396;-77
2023/12/29 04:15:11;;;;;;;2.47;0.63;;;10.20;99.90;;;11.53;100.00;99731.81;5071639;28;20059;-78
2023/12/29 04:17:37;;;;;;;3.45;0.60;;;10.20;99.90;;;11.45;100.00;99746.69;5072184;28;20028;-77
2023/12/29 04:20:04;;;;;;;1.38;0.57;;;10.20;99.90;;;11.40;100.00;99715.72;5059644;28;20048;-77
2023/12/29 04:22:29;;;;;;;1.98;0.57;;;10.10;99.90;;;11.41;100.00;99698.31;5062671;28;20393;-77
2023/12/29 04:24:55;;;;;;;3.30;0.70;;;10.10;99.90;;;11.23;100.00;99675.59;5053277;28;20052;-78
2023/12/29 04:27:22;;;;;;;3.20;0.68;;;10.20;99.90;;;11.45;100.00;99713.94;5063094;28;20043;-77
2023/12/29 04:29:48;;;;;;;6.32;1.15;;;10.10;99.90;;;11.43;100.00;99679.75;5059385;28;20041;-77
2023/12/29 04:32:14;;;;;;;3.15;0.82;;;10.10;99.90;;;11.47;100.00;99708.25;5071748;28;20108;-77
2023/12/29 04:34:41;;;;;;;4.90;0.77;;;10.10;99.90;;;11.41;100.00;99718.22;5068985;28;20158;-77
2023/12/29 04:37:07;;;;;;;6.35;1.00;;;10.10;99.90;;;11.47;100.00;99722.69;5053371;28;20044;-77
2023/12/29 04:39:33;;;;;;;3.42;0.50;;;10.10;99.90;;;11.34;100.00;99718.38;5044748;28;20035;-77
2023/12/29 04:41:59;;;;;;;2.55;0.93;;;10.20;99.90;;;11.38;100.00;99778.81;5066792;28;20530;-77
2023/12/29 04:44:25;;;;;;;4.65;0.80;;;10.20;99.90;;;11.48;100.00;99696.25;5065265;28;20040;-78
2023/12/29 04:46:50;;;;;;;2.72;0.80;;;10.20;99.90;;;11.42;100.00;99695.31;5064530;28;20037;-78
2023/12/29 04:49:16;;;;;;;1.75;0.70;;;10.10;99.90;;;11.49;100.00;99741.59;5070729;28;20653;-77
2023/12/29 04:51:42;;;;;;;3.50;0.85;;;10.10;99.90;;;11.36;100.00;99718.16;5067172;28;20033;-78
2023/12/29 04:54:09;;;;;;;2.95;0.60;;;10.10;99.90;;;11.43;100.00;99713.34;5052722;28;20025;-77
2023/12/29 04:56:34;;;;;;;3.22;0.82;;;10.20;99.90;;;11.33;100.00;99716.72;5048161;28;20442;-78
2023/12/29 04:59:00;;;;;;;3.65;0.70;;;10.10;99.90;;;11.34;100.00;99753.06;5065760;28;20055;-77
2023/12/29 05:01:26;;;;;;;2.25;0.52;;;10.10;99.90;;;11.40;100.00;99730.22;5053560;28;20045;-78
2023/12/29 05:03:51;;;;;;;4.35;0.90;;;10.10;99.90;;;11.15;100.00;99725.94;5070806;28;20049;-77
2023/12/29 05:06:17;;;;;;;2.28;0.82;;;10.10;99.90;;;11.12;100.00;99733.78;5059429;28;20047;-77
2023/12/29 05:08:43;;;;;;;4.15;0.70;;;9.80;99.90;;;10.89;100.00;99741.00;5061173;28;20033;-77
2023/12/29 05:11:08;;;;;;;3.10;0.70;;;9.70;99.90;;;10.94;100.00;99724.72;5064103;28;20553;-77
2023/12/29 05:13:34;;;;;;;2.00;0.82;;;9.60;99.90;;;10.97;100.00;99728.84;5052182;28;20029;-77
2023/12/29 05:16:00;;;;;;;1.52;0.60;;;9.60;99.90;;;11.17;100.00;99728.44;5066990;28;20033;-77
2023/12/29 05:18:29;;;;;;;1.70;0.57;;;9.70;99.90;;;11.12;100.00;99766.53;5052059;28;20128;-76
2023/12/29 05:20:55;;;;;;;3.28;0.85;;;9.70;99.90;;;11.14;100.00;99720.72;5061843;28;20111;-77
2023/12/29 05:23:20;;;;;;;1.95;0.43;;;9.70;99.90;;;11.07;100.00;99716.22;5067607;28;20640;-77
2023/12/29 05:25:46;;;;;;;3.67;0.70;;;9.70;99.90;;;11.33;100.00;99746.75;5035164;28;20033;-77
2023/12/29 05:28:12;;;;;;;3.65;0.65;;;9.70;99.90;;;10.98;100.00;99725.88;5042980;28;20041;-77
2023/12/29 05:30:37;;;;;;;2.58;0.80;;;9.60;99.90;;;11.03;100.00;99736.91;5053469;28;20085;-78
2023/12/29 05:33:03;;;;;;;3.13;0.75;;;9.50;99.90;;;10.87;100.00;99718.53;5064862;28;20041;-77
2023/12/29 05:35:29;;;;;;;2.95;0.90;;;9.40;99.90;;;10.84;100.00;99714.41;5073135;28;20040;-78
2023/12/29 05:37:55;;;;;;;3.65;1.00;;;9.40;99.90;;;10.91;100.00;99717.00;5049872;28;20033;-78
2023/12/29 05:40:20;;;;;;;3.20;1.15;;;9.50;99.90;;;10.97;100.00;99729.69;5063669;28;20044;-78
2023/12/29 05:42:46;;;;;;;2.20;1.00;;;9.60;99.90;;;11.05;100.00;99717.56;5045757;28;20063;-78
2023/12/29 05:45:12;;;;;;;3.25;1.08;;;9.60;99.90;;;11.10;100.00;99711.34;5068838;28;20029;-77
2023/12/29 05:47:37;;;;;;;3.85;1.10;;;9.70;99.90;;;11.24;100.00;99731.84;5065599;28;20040;-78
2023/12/29 05:50:04;;;;;;;5.50;1.30;;;9.80;99.90;;;11.22;100.00;99720.34;5072116;28;20090;-78
2023/12/29 05:52:29;;;;;;;6.22;1.10;;;9.70;99.90;;;11.17;100.00;99712.88;5066362;28;20136;-77
2023/12/29 05:54:55;;;;;;;3.40;1.10;;;9.70;99.90;;;11.16;100.00;99715.88;5068022;28;20036;-77
2023/12/29 05:57:21;;;;;;;4.72;0.88;;;9.60;99.90;;;11.06;100.00;99717.31;5070643;28;20073;-77
2023/12/29 05:59:47;;;;;;;5.68;1.20;;;9.50;99.90;;;11.06;100.00;99725.50;5064111;28;20049;-78
2023/12/29 06:02:12;;;;;;;4.45;1.10;;;9.60;99.90;;;11.02;100.00;99710.69;5066750;28;20037;-78
2023/12/29 06:04:38;;;;;;;2.78;1.15;;;9.50;99.90;;;10.88;100.00;99731.16;5067435;28;20052;-78
2023/12/29 06:07:04;;;;;;;4.93;1.35;;;9.60;99.90;;;11.17;100.00;99728.44;5064229;28;20037;-78
2023/12/29 06:09:29;;;;;;;4.45;1.20;;;9.70;99.90;;;11.10;100.00;99714.94;5065086;28;20419;-78
2023/12/29 06:11:55;;;;;;;4.13;1.40;;;9.70;99.90;;;11.18;100.00;99717.25;5054480;28;20040;-78
2023/12/29 06:14:21;;;;;;;5.85;1.40;;;9.70;99.90;;;11.01;100.00;99722.66;5063216;28;20067;-78
2023/12/29 06:16:46;;;;;;;4.35;1.20;;;9.80;99.90;;;11.19;100.00;99731.75;5049545;28;20036;-78
2023/12/29 06:19:12;;;;;;;3.28;1.20;;;9.80;99.90;;;11.19;100.00;99738.03;5069227;28;20729;-77
2023/12/29 06:21:44;;;;;;;4.03;1.60;;;9.80;99.90;;;11.37;100.00;99734.25;5070676;28;20464;-77
2023/12/29 06:24:11;;;;;;;5.97;1.40;;;9.90;99.90;;;11.45;100.00;99738.50;5074955;28;20044;-77
2023/12/29 06:26:42;;;;;;;5.63;1.67;;;9.90;99.90;;;11.31;100.00;99728.97;5071872;28;20045;-77
2023/12/29 06:29:09;;;;;;;7.78;1.67;;;9.80;99.90;;;11.07;100.00;99738.06;5069874;28;20148;-77
2023/12/29 06:31:34;;;;;;;5.65;1.40;;;9.70;99.90;;;10.85;100.00;99735.19;5073597;28;20151;-76
2023/12/29 06:34:00;;;;;;;7.07;1.40;;;9.50;99.90;;;10.70;100.00;99716.59;5069495;28;20666;-78
2023/12/29 06:36:26;;;;;;;9.75;2.00;;;9.30;99.90;;;10.77;100.00;99743.75;5063971;28;20391;-77
2023/12/29 06:38:52;;;;;;;5.70;1.80;;;9.20;99.90;;;10.62;100.00;99725.16;5051577;28;20036;-78
2023/12/29 06:41:19;;;;;;;8.13;1.80;;;9.20;99.90;;;10.82;100.00;99727.47;5049127;28;20448;-76
2023/12/29 06:43:45;;;;;;;5.72;1.40;;;9.10;99.90;;;10.73;100.00;99742.53;5043261;28;20033;-77
2023/12/29 06:46:13;;;;;;;10.52;2.03;;;9.20;99.90;;;10.75;100.00;99716.69;5016698;28;20029;-77
2023/12/29 06:48:39;;;;;;;9.45;2.17;;;9.20;99.90;;;10.94;100.00;99727.44;5056884;28;20090;-76
2023/12/29 06:51:05;;;;;;;6.30;1.70;;;9.30;99.90;;;10.83;100.00;99718.22;5053874;28;20036;-77
2023/12/29 06:53:31;;;;;;;7.95;1.98;;;9.30;99.90;;;10.97;100.00;99720.66;5063198;28;20028;-78
2023/12/29 06:55:57;;;;;;;7.72;1.58;;;9.40;99.90;;;11.07;100.00;99716.22;5059348;28;20040;-77
2023/12/29 06:58:22;;;;;;;6.97;1.88;;;9.50;99.90;;;11.18;100.00;99719.19;5034381;28;20032;-77
2023/12/29 07:00:48;;;;;;;5.72;1.63;;;9.50;99.90;;;11.24;100.00;99734.56;5062489;28;20134;-77
2023/12/29 07:03:15;;;;;;;6.35;1.95;;;9.60;99.90;;;11.36;100.00;99715.41;5062526;28;20050;-78
2023/12/29 07:05:41;;;;;;;11.95;1.80;;;9.70;99.90;;;11.48;100.00;99726.28;5066498;28;20048;-75
2023/12/29 07:08:06;;;;;;;7.95;1.30;;;9.80;99.90;;;11.49;100.00;99742.41;5041673;28;20499;-75
2023/12/29 07:10:32;;;;;;;6.38;1.58;;;9.80;99.90;;;11.50;100.00;99724.94;5050889;28;20047;-76
2023/12/29 07:12:58;;;;;;;7.85;1.60;;;9.90;99.90;;;11.56;100.00;99731.34;5062613;28;20040;-75
2023/12/29 07:15:23;;;;;;;5.68;1.48;;;10.10;99.90;;;11.50;100.00;99757.72;5051736;28;20037;-75
2023/12/29 07:17:49;;;;;;;5.15;1.48;;;10.00;99.90;;;11.64;100.00;99739.13;5069039;28;20065;-76
2023/12/29 07:20:15;;;;;;;4.95;1.40;;;10.10;99.90;;;11.77;100.00;99707.09;5039330;28;20036;-76
2023/12/29 07:22:41;;;;;;;5.50;1.40;;;10.10;99.90;;;11.59;100.00;99736.31;5058798;28;20044;-75
2023/12/29 07:25:07;;;;;;;6.13;1.52;;;10.20;99.90;;;11.76;100.00;99749.16;5045552;28;20036;-75
2023/12/29 07:27:32;;;;;;;7.47;2.35;;;10.20;99.90;;;11.79;100.00;99737.75;5071085;28;20044;-76
2023/12/29 07:29:58;;;;;;;5.00;1.40;;;10.30;99.90;;;11.90;100.00;99731.34;5039928;28;20066;-77
2023/12/29 07:32:24;;;;;;;10.02;1.50;;;10.30;99.90;;;11.97;100.00;99749.53;5047480;28;20040;-77
2023/12/29 07:34:50;;;;;;;6.68;1.50;;;10.30;99.90;;;11.97;100.00;99771.38;5064097;28;20391;-75
2023/12/29 07:37:15;;;;;;;8.55;1.67;;;10.40;99.90;;;11.94;100.00;99748.94;5065428;28;20055;-76
2023/12/29 07:39:41;;;;;;;9.43;1.70;;;10.40;99.90;;;11.90;100.00;99727.81;5047011;28;20032;-77
2023/12/29 07:42:06;;;;;;;7.30;1.70;;;10.40;99.90;;;11.99;100.00;99759.13;5057527;28;20472;-78
2023/12/29 07:44:32;;;;;;;7.60;1.65;;;10.40;99.90;;;11.91;100.00;99746.69;5058367;28;20040;-77
2023/12/29 07:46:58;;;;;;;5.30;1.30;;;10.40;99.90;;;11.90;100.00;99753.22;5066190;28;20480;-77
2023/12/29 07:49:24;;;;;;;7.63;1.80;;;10.50;99.90;;;12.06;100.00;99764.47;5067294;28;20085;-77
2023/12/29 07:51:49;;;;;;;8.90;1.40;;;10.50;99.90;;;11.66;100.00;99761.56;5036692;28;20044;-77
2023/12/29 07:54:15;;;;;;;7.18;1.45;;;10.50;99.90;;;11.97;100.00;99757.72;5049569;28;20134;-77
2023/12/29 07:56:41;;;;;;;6.57;1.45;;;10.50;99.90;;;11.99;100.00;99785.63;5066410;28;20032;-77
2023/12/29 07:59:07;;;;;;;5.50;1.65;;;10.50;99.90;;;12.19;100.00;99787.91;5065708;28;20036;-76
2023/12/29 08:01:32;;;;;;;6.55;1.40;;;10.50;99.90;;;11.95;100.00;99768.88;5070244;28;20037;-79
2023/12/29 08:03:58;;;;;;;7.50;1.58;;;10.50;99.90;;;12.06;100.00;99789.06;5068731;28;20393;-77
2023/12/29 08:06:24;;;;;;;6.47;1.85;;;10.60;99.90;;;12.15;100.00;99793.03;5061123;28;20033;-77
2023/12/29 08:08:49;;;;;;;7.88;1.50;;;10.60;99.90;;;11.88;100.00;99782.72;5063710;28;20501;-77
2023/12/29 08:11:17;;;;;;;6.18;1.38;;;10.60;99.90;;;12.10;100.00;99803.88;5060365;28;20063;-78
2023/12/29 08:13:48;;;;;;;11.27;2.07;;;10.60;99.90;;;12.07;100.00;99790.72;5037174;28;20123;-79
2023/12/29 08:16:17;;;;;;;7.90;1.75;;;10.60;99.90;;;12.05;100.00;99779.19;5041855;28;20040;-77
2023/12/29 08:18:43;;;;;;;7.13;1.77;;;10.70;99.90;;;12.01;100.00;99788.97;5065190;28;20044;-77
2023/12/29 08:21:15;;;;;;;8.75;1.60;;;10.60;99.90;;;12.25;100.00;99797.03;5072627;28;20048;-79
2023/12/29 08:23:41;;;;;;;6.22;1.55;;;10.60;99.90;;;12.08;100.00;99790.47;5065675;28;20094;-79
2023/12/29 08:26:06;;;;;;;5.93;1.50;;;10.60;99.90;;;12.00;100.00;99779.91;5071482;28;20040;-80
2023/12/29 08:28:32;;;;;;;6.50;1.50;;;10.60;99.90;;;12.24;100.00;99777.03;5044543;28;20474;-83
2023/12/29 08:30:58;;;;;;;6.20;1.77;;;10.60;99.90;;;12.20;100.00;99787.66;5070007;28;20032;-80
2023/12/29 08:33:23;;;;;;;13.55;1.90;;;10.70;99.90;;;12.16;100.00;99778.28;5060726;28;20052;-79
2023/12/29 08:35:49;;;;;;;8.02;1.50;;;10.70;99.90;;;12.08;100.00;99820.56;5056880;28;20587;-78
2023/12/29 08:38:15;;;;;;;7.82;1.70;;;10.70;99.90;;;12.32;100.00;99806.69;5053014;28;20093;-80
2023/12/29 08:40:42;;;;;;;6.43;1.35;;;10.80;99.90;;;12.32;100.00;99789.47;5058296;28;20094;-80
2023/12/29 08:43:07;;;;;;;7.10;1.58;;;10.80;99.90;;;12.34;100.00;99806.47;5064812;28;20036;-79
2023/12/29 08:45:33;;;;;;;7.35;1.83;;;10.80;99.90;;;12.48;100.00;99805.06;5064443;28;20391;-80
2023/12/29 08:47:59;;;;;;;11.18;1.77;;;10.80;99.90;;;12.38;100.00;99780.25;5069119;28;20032;-80
2023/12/29 08:50:24;;;;;;;10.80;2.50;;;10.80;99.90;;;12.46;100.00;99804.44;5064946;28;20041;-80
2023/12/29 08:52:50;;;;;;;11.68;1.70;;;10.90;99.90;;;12.49;100.00;99798.50;5067275;28;20515;-80
2023/12/29 08:55:16;;;;;;;10.60;1.48;;;10.90;99.90;;;12.52;100.00;99784.31;5056145;28;20049;-80
2023/12/29 08:57:42;;;;;;;7.22;1.50;;;10.90;99.90;;;12.39;100.00;99787.38;5066767;28;20024;-81
2023/12/29 09:00:09;;;;;;;5.00;1.40;;;10.90;99.90;;;12.56;100.00;99792.84;5064669;28;20028;-80
2023/12/29 09:02:35;;;;;;;11.48;2.33;;;10.90;99.90;;;12.42;100.00;99770.47;5044472;28;20445;-80
2023/12/29 09:05:01;;;;;;;8.32;1.77;;;11.00;99.90;;;12.44;100.00;99786.66;5070865;28;20095;-79
2023/12/29 09:07:28;;;;;;;7.13;1.42;;;11.00;99.90;;;12.45;100.00;99780.91;5065648;28;20393;-79
2023/12/29 09:09:53;;;;;;;5.57;1.23;;;11.00;99.90;;;12.45;100.00;99771.88;5071079;28;20028;-79
2023/12/29 09:12:19;;;;;;;8.70;1.70;;;11.00;99.90;;;12.70;100.00;99762.41;5071290;28;20507;-80
2023/12/29 09:14:45;;;;;;;11.82;1.95;;;11.00;99.90;;;12.54;100.00;99766.81;5071128;28;20060;-79
2023/12/29 09:17:10;;;;;;;7.85;2.20;;;11.00;99.90;;;12.57;100.00;99764.41;5068880;28;20036;-80
2023/12/29 09:19:36;;;;;;;7.18;1.65;;;11.00;99.90;;;12.49;100.00;99773.03;5059129;28;20045;-78
2023/12/29 09:22:03;;;;;;;9.63;1.42;;;11.00;99.90;;;12.40;100.00;99778.09;5061785;28;20183;-78
2023/12/29 09:24:28;;;;;;;6.50;1.38;;;11.00;99.90;;;12.36;100.00;99779.69;5064195;28;20075;-79
2023/12/29 09:26:54;;;;;;;9.85;1.88;;;11.00;99.90;;;12.48;100.00;99757.72;5047965;28;20045;-80
2023/12/29 09:29:20;;;;;;;9.07;1.58;;;11.00;99.90;;;12.52;100.00;99808.94;5061747;28;20059;-79
2023/12/29 09:31:46;;;;;;;7.78;1.45;;;10.90;99.90;;;12.27;100.00;99783.94;5068351;28;20473;-80
2023/12/29 09:34:11;;;;;;;7.85;1.55;;;10.90;99.90;;;12.35;100.00;99794.44;5066667;28;20468;-79
2023/12/29 09:36:37;;;;;;;7.60;1.30;;;10.90;99.90;;;12.39;100.00;99790.13;5060715;28;20021;-79
2023/12/29 09:39:03;;;;;;;4.45;1.13;;;10.90;99.90;;;12.59;100.00;99786.03;5059554;28;20480;-82
2023/12/29 09:41:33;;;;;;;9.77;1.67;;;10.80;99.90;;;12.27;100.00;99795.69;5048588;28;20086;-84
2023/12/29 09:44:03;;;;;;;5.82;1.20;;;10.80;99.90;;;11.92;100.00;99811.19;5070700;28;20536;-84
2023/12/29 09:46:32;;;;;;;10.18;2.63;;;10.60;99.90;;;11.61;100.00;99805.19;5035215;28;20024;-78
2023/12/29 09:49:03;;;;;;;5.38;1.33;;;10.30;99.90;;;11.30;100.00;99839.28;5060812;28;20093;-77
2023/12/29 09:51:31;;;;;;;7.05;1.25;;;10.00;99.90;;;11.32;100.00;99807.91;5066700;28;20231;-78
2023/12/29 09:53:58;;;;;;;6.50;1.90;;;9.80;99.90;;;11.12;100.00;99788.38;5051963;28;20116;-77
2023/12/29 09:56:24;;;;;;;6.70;1.75;;;9.60;99.90;;;11.03;100.00;99832.44;5070191;28;20044;-76
2023/12/29 09:58:53;;;;;;;5.50;1.38;;;9.50;99.90;;;10.96;100.00;99809.06;5069946;28;20037;-76
2023/12/29 10:01:22;;;;;;;11.35;1.35;;;9.40;99.90;;;10.65;100.00;99801.84;5070028;28;20492;-76
2023/12/29 10:03:49;;;;;;;6.05;1.20;;;9.30;99.90;;;10.50;100.00;99820.63;5066250;28;20119;-78
2023/12/29 10:06:21;;;;;;;5.70;1.25;;;9.10;99.90;;;10.35;100.00;99826.50;5035703;28;20037;-77
2023/12/29 10:08:49;;;;;;;2.80;0.80;;;9.00;99.90;;;10.31;100.00;99820.69;5061007;28;20035;-76
2023/12/29 10:11:20;;;;;;;6.05;1.35;;;8.80;99.90;;;10.29;100.00;99795.53;5043416;28;20056;-76
2023/12/29 10:13:50;;;;;;;5.35;1.30;;;8.70;99.90;;;10.27;100.00;99796.84;5061884;28;20037;-76